createdAt,value
2024-01-20T00:00:46.061Z,27.80
2024-01-20T00:03:13.185Z,27.10
2024-01-20T00:05:40.572Z,27.90
2024-01-20T00:08:07.972Z,22.90
2024-01-20T00:10:35.350Z,28.90
2024-01-20T00:13:04.386Z,29.30
2024-01-20T00:15:31.653Z,27.10
2024-01-20T00:17:58.893Z,26.60
2024-01-20T00:20:26.339Z,21.70
2024-01-20T00:22:53.818Z,26.10
2024-01-20T00:25:22.348Z,25.80
2024-01-20T00:27:52.299Z,26.10
2024-01-20T00:30:22.555Z,26.00
2024-01-20T00:32:50.219Z,26.10
2024-01-20T00:35:17.631Z,24.80
2024-01-20T00:37:44.895Z,25.40
2024-01-20T00:40:12.758Z,24.90
2024-01-20T00:42:39.986Z,25.70
2024-01-20T00:45:08.149Z,24.50
2024-01-20T00:47:37.769Z,23.70
2024-01-20T00:50:07.443Z,23.00
2024-01-20T00:52:34.646Z,25.60
2024-01-20T00:55:01.884Z,25.60
2024-01-20T00:57:29.012Z,27.70
2024-01-20T00:59:57.528Z,26.30
2024-01-20T01:02:26.861Z,26.60
2024-01-20T01:04:57.226Z,25.70
2024-01-20T01:07:24.471Z,25.30
2024-01-20T01:09:52.216Z,25.00
2024-01-20T01:12:19.598Z,27.40
2024-01-20T01:14:46.724Z,25.10
2024-01-20T01:17:13.936Z,26.80
2024-01-20T01:19:41.379Z,27.40
2024-01-20T01:22:09.021Z,26.50
2024-01-20T01:24:36.257Z,26.40
2024-01-20T01:27:03.389Z,23.10
2024-01-20T01:29:32.914Z,27.30
2024-01-20T01:32:00.433Z,28.30
2024-01-20T01:34:27.708Z,27.70
2024-01-20T01:36:55.108Z,28.50
2024-01-20T01:39:22.806Z,28.90
2024-01-20T01:41:50.382Z,23.50
2024-01-20T01:44:17.612Z,27.80
2024-01-20T01:46:45.368Z,27.20
2024-01-20T01:49:12.790Z,29.00
2024-01-20T01:51:40.450Z,27.90
2024-01-20T01:54:10.244Z,29.30
2024-01-20T01:56:37.839Z,26.70
2024-01-20T01:59:05.109Z,28.30
2024-01-20T02:04:20.779Z,28.20
2024-01-20T02:06:58.474Z,30.70
2024-01-20T02:09:36.577Z,30.60
2024-01-20T02:12:11.561Z,30.70
2024-01-20T02:14:44.141Z,34.20
2024-01-20T02:17:14.510Z,31.20
2024-01-20T02:19:42.649Z,32.40
2024-01-20T02:22:20.899Z,32.60
2024-01-20T02:24:50.380Z,27.70
2024-01-20T02:27:37.623Z,26.20
2024-01-20T02:30:08.269Z,29.30
2024-01-20T02:32:36.005Z,30.70
2024-01-20T02:35:04.923Z,31.40
2024-01-20T02:37:33.239Z,30.10
2024-01-20T02:40:20.478Z,26.60
2024-01-20T02:42:56.700Z,26.10
2024-01-20T02:47:56.209Z,28.30
2024-01-20T02:50:26.228Z,27.80
2024-01-20T02:52:56.032Z,25.20
2024-01-20T02:58:24.333Z,24.10
2024-01-20T03:00:56.299Z,22.90
2024-01-20T03:03:26.415Z,24.60
2024-01-20T03:06:35.614Z,22.30
2024-01-20T03:09:07.318Z,22.70
2024-01-20T03:11:39.528Z,22.70
2024-01-20T03:14:27.253Z,21.90
2024-01-20T03:17:17.291Z,22.70
2024-01-20T03:20:05.650Z,21.60
2024-01-20T03:22:44.474Z,20.10
2024-01-20T03:25:32.644Z,23.80
2024-01-20T03:28:03.419Z,21.40
2024-01-20T03:30:36.818Z,24.10
2024-01-20T03:33:04.889Z,21.00
2024-01-20T03:35:37.037Z,24.40
2024-01-20T03:38:05.531Z,22.30
2024-01-20T03:40:58.686Z,24.30
2024-01-20T03:43:48.135Z,32.00
2024-01-20T03:46:47.698Z,25.90
2024-01-20T03:49:41.189Z,25.90
2024-01-20T03:52:18.418Z,21.10
2024-01-20T03:55:25.490Z,25.80
2024-01-20T04:00:27.633Z,23.90
2024-01-20T04:03:36.303Z,25.50
2024-01-20T04:06:57.099Z,24.00
2024-01-20T04:10:09.781Z,21.40
2024-01-20T04:13:05.339Z,23.00
2024-01-20T04:16:15.086Z,24.30
2024-01-20T04:18:44.789Z,23.20
2024-01-20T04:21:38.499Z,22.60
2024-01-20T04:24:52.506Z,17.70
2024-01-20T04:28:00.402Z,20.60
2024-01-20T04:30:55.708Z,20.10
2024-01-20T04:34:14.406Z,30.90
2024-01-20T04:37:31.191Z,22.70
2024-01-20T04:40:38.357Z,20.80
2024-01-20T04:43:57.623Z,19.80
2024-01-20T04:47:08.837Z,19.70
2024-01-20T04:50:19.781Z,19.90
2024-01-20T04:53:36.151Z,16.50
2024-01-20T04:57:05.958Z,32.00
2024-01-20T05:00:22.685Z,22.10
2024-01-20T05:03:49.879Z,25.00
2024-01-20T05:07:16.876Z,18.70
2024-01-20T05:10:46.169Z,21.00
2024-01-20T05:14:13.002Z,19.30
2024-01-20T05:17:41.195Z,22.60
2024-01-20T05:21:28.459Z,21.90
2024-01-20T05:25:15.325Z,21.60
2024-01-20T05:28:45.661Z,25.60
2024-01-20T05:32:12.609Z,25.60
2024-01-20T05:35:39.398Z,26.00
2024-01-20T05:39:26.294Z,23.80
2024-01-20T05:43:12.952Z,21.50
2024-01-20T05:46:59.966Z,23.50
2024-01-20T05:50:27.646Z,22.30
2024-01-20T05:53:54.993Z,23.00
2024-01-20T05:57:28.842Z,25.20
2024-01-20T06:01:16.305Z,22.00
2024-01-20T06:04:27.685Z,24.40
2024-01-20T06:07:54.626Z,24.80
2024-01-20T06:11:41.486Z,20.60
2024-01-20T06:15:28.363Z,22.80
2024-01-20T06:19:00.121Z,24.00
2024-01-20T06:22:46.791Z,20.40
2024-01-20T06:25:57.942Z,21.60
2024-01-20T06:29:25.006Z,24.20
2024-01-20T06:33:11.947Z,22.70
2024-01-20T06:36:39.338Z,23.20
2024-01-20T06:40:06.970Z,20.50
2024-01-20T06:43:34.530Z,23.00
2024-01-20T06:50:28.633Z,19.70
2024-01-20T06:54:13.114Z,20.20
2024-01-20T06:58:00.896Z,21.70
2024-01-20T07:01:47.990Z,22.00
2024-01-20T07:05:15.393Z,21.20
2024-01-20T07:09:02.229Z,21.30
2024-01-20T07:12:49.096Z,20.40
2024-01-20T07:16:35.958Z,23.20
2024-01-20T07:20:22.687Z,23.30
2024-01-20T07:24:09.543Z,21.30
2024-01-20T07:27:56.666Z,20.20
2024-01-20T07:31:39.176Z,21.80
2024-01-20T07:35:26.263Z,20.10
2024-01-20T07:39:13.150Z,19.90
2024-01-20T07:42:45.482Z,17.00
2024-01-20T07:46:35.241Z,19.80
2024-01-20T07:50:11.879Z,18.70
2024-01-20T07:53:58.769Z,15.40
2024-01-20T07:57:26.171Z,17.40
2024-01-20T08:01:13.459Z,17.30
2024-01-20T08:05:00.253Z,16.20
2024-01-20T08:08:40.386Z,17.40
2024-01-20T08:12:21.652Z,16.40
2024-01-20T08:15:49.281Z,18.60
2024-01-20T08:19:36.476Z,15.60
2024-01-20T08:23:23.376Z,18.50
2024-01-20T08:26:58.726Z,15.40
2024-01-20T08:30:27.120Z,18.70
2024-01-20T08:34:14.352Z,18.70
2024-01-20T08:37:41.966Z,18.90
2024-01-20T08:41:13.116Z,19.10
2024-01-20T08:44:59.990Z,18.70
2024-01-20T09:07:03.975Z,17.90
2024-01-20T09:10:31.927Z,15.80
2024-01-20T09:14:19.388Z,17.20
2024-01-20T09:18:06.816Z,18.80
2024-01-20T09:21:57.346Z,21.10
2024-01-20T09:25:44.464Z,18.80
2024-01-20T09:29:33.848Z,17.40
2024-01-20T09:36:51.126Z,17.50
2024-01-20T09:40:44.554Z,19.40
2024-01-20T10:02:58.544Z,19.10
2024-01-20T10:05:32.484Z,16.60
2024-01-20T10:07:59.740Z,18.30
2024-01-20T10:10:26.959Z,18.50
2024-01-20T10:13:02.576Z,15.50
2024-01-20T10:15:34.475Z,18.50
2024-01-20T10:18:10.393Z,19.00
2024-01-20T10:20:38.773Z,19.00
2024-01-20T10:23:07.702Z,17.20
2024-01-20T10:25:34.998Z,18.80
2024-01-20T10:28:02.160Z,17.20
2024-01-20T10:30:30.571Z,18.80
2024-01-20T10:33:08.899Z,19.10
2024-01-20T10:35:38.206Z,18.00
2024-01-20T10:38:12.488Z,18.30
2024-01-20T10:40:43.470Z,17.30
2024-01-20T10:43:17.661Z,17.90
2024-01-20T10:46:00.041Z,16.90
2024-01-20T11:16:19.767Z,15.30
2024-01-20T21:09:15.366Z,21.00
2024-01-20T21:13:04.317Z,20.40
2024-01-20T21:16:51.773Z,20.00
2024-01-20T21:20:41.973Z,19.50
2024-01-20T21:24:29.153Z,18.80
2024-01-20T21:28:17.863Z,19.40
2024-01-20T21:32:07.543Z,18.70
2024-01-20T21:35:53.341Z,19.00
2024-01-20T21:39:40.616Z,18.70
2024-01-20T21:43:29.048Z,17.20
2024-01-20T21:47:20.120Z,19.30
2024-01-20T21:50:45.117Z,18.90
2024-01-20T21:53:12.186Z,17.00
2024-01-20T21:55:38.934Z,20.00
2024-01-20T21:58:05.471Z,20.90
2024-01-20T22:00:32.074Z,18.50
2024-01-20T22:02:58.714Z,20.10
2024-01-20T22:05:25.501Z,18.90
2024-01-20T22:07:54.563Z,20.80
2024-01-20T22:10:20.969Z,19.90
2024-01-20T22:12:47.791Z,18.40
2024-01-20T22:15:14.609Z,19.80
2024-01-20T22:17:41.482Z,20.40
2024-01-20T22:20:09.310Z,18.20
2024-01-20T22:22:35.980Z,21.00
2024-01-20T22:25:02.489Z,21.20
2024-01-20T22:27:29.016Z,19.00
2024-01-20T22:29:55.689Z,20.50
2024-01-20T22:32:22.176Z,18.50
2024-01-20T22:34:48.824Z,19.80
2024-01-20T22:37:15.383Z,18.20
2024-01-20T22:39:41.935Z,20.70
2024-01-20T22:42:08.425Z,20.70
2024-01-20T22:44:35.184Z,20.70
2024-01-20T22:47:01.979Z,19.60
2024-01-20T22:49:30.652Z,19.70
2024-01-20T22:51:57.302Z,20.70
2024-01-20T22:54:26.320Z,18.80
2024-01-20T22:56:52.869Z,19.60
2024-01-20T22:59:19.495Z,20.70
2024-01-20T23:01:45.997Z,20.10
2024-01-20T23:04:16.882Z,20.20
2024-01-20T23:06:46.213Z,21.70
2024-01-20T23:09:12.746Z,19.90
2024-01-20T23:11:39.748Z,19.40
2024-01-20T23:14:06.253Z,20.40
2024-01-20T23:16:32.786Z,21.40
2024-01-20T23:18:59.750Z,21.40
2024-01-20T23:21:26.484Z,21.50
2024-01-20T23:23:53.150Z,18.00
2024-01-20T23:26:19.597Z,21.90
2024-01-20T23:28:46.127Z,21.90
2024-01-20T23:31:12.654Z,22.80
2024-01-20T23:33:39.676Z,19.70
2024-01-20T23:36:06.866Z,21.10
2024-01-20T23:38:33.427Z,21.50
2024-01-20T23:41:00.073Z,21.50
2024-01-20T23:43:27.185Z,20.20
2024-01-20T23:45:53.851Z,20.80
2024-01-20T23:48:20.420Z,20.50
2024-01-20T23:50:47.284Z,22.10
2024-01-20T23:53:13.822Z,19.20
2024-01-20T23:55:40.328Z,22.20
2024-01-20T23:58:06.777Z,21.70
